sensor_id;sensor_type;location;lat;lon;timestamp;P1;durP1;ratioP1;P2;durP2;ratioP2
23952;SDS011;12163;49.316;6.092;2024-03-29T00:00:56;6.88;;;2.53;;
23952;SDS011;12163;49.316;6.092;2024-03-29T00:03:22;6.28;;;2.40;;
23952;SDS011;12163;49.316;6.092;2024-03-29T00:05:47;5.43;;;2.13;;
23952;SDS011;12163;49.316;6.092;2024-03-29T00:08:13;9.27;;;2.63;;
23952;SDS011;12163;49.316;6.092;2024-03-29T00:10:39;7.22;;;2.33;;
23952;SDS011;12163;49.316;6.092;2024-03-29T00:13:04;4.55;;;2.22;;
23952;SDS011;12163;49.316;6.092;2024-03-29T00:15:33;12.02;;;2.35;;
23952;SDS011;12163;49.316;6.092;2024-03-29T00:17:59;6.25;;;2.30;;
23952;SDS011;12163;49.316;6.092;2024-03-29T00:20:25;5.60;;;2.30;;
23952;SDS011;12163;49.316;6.092;2024-03-29T00:22:51;12.68;;;2.20;;
23952;SDS011;12163;49.316;6.092;2024-03-29T00:25:16;9.10;;;2.60;;
23952;SDS011;12163;49.316;6.092;2024-03-29T00:27:42;9.27;;;2.25;;
23952;SDS011;12163;49.316;6.092;2024-03-29T00:30:13;4.68;;;2.10;;
23952;SDS011;12163;49.316;6.092;2024-03-29T00:32:39;9.10;;;2.35;;
23952;SDS011;12163;49.316;6.092;2024-03-29T00:35:04;6.35;;;2.15;;
23952;SDS011;12163;49.316;6.092;2024-03-29T00:37:30;7.55;;;2.58;;
23952;SDS011;12163;49.316;6.092;2024-03-29T00:39:56;11.90;;;2.30;;
23952;SDS011;12163;49.316;6.092;2024-03-29T00:42:21;9.23;;;2.30;;
23952;SDS011;12163;49.316;6.092;2024-03-29T00:44:47;5.97;;;2.40;;
23952;SDS011;12163;49.316;6.092;2024-03-29T00:47:13;10.05;;;2.33;;
23952;SDS011;12163;49.316;6.092;2024-03-29T00:49:38;5.53;;;2.60;;
23952;SDS011;12163;49.316;6.092;2024-03-29T00:52:04;9.63;;;2.45;;
23952;SDS011;12163;49.316;6.092;2024-03-29T00:54:30;8.68;;;2.90;;
23952;SDS011;12163;49.316;6.092;2024-03-29T00:56:56;6.60;;;2.70;;
23952;SDS011;12163;49.316;6.092;2024-03-29T00:59:22;6.93;;;2.53;;
23952;SDS011;12163;49.316;6.092;2024-03-29T01:01:48;10.85;;;3.00;;
23952;SDS011;12163;49.316;6.092;2024-03-29T01:04:14;7.68;;;2.50;;
23952;SDS011;12163;49.316;6.092;2024-03-29T01:06:40;7.32;;;2.95;;
23952;SDS011;12163;49.316;6.092;2024-03-29T01:09:05;6.03;;;2.38;;
23952;SDS011;12163;49.316;6.092;2024-03-29T01:11:31;8.52;;;2.65;;
23952;SDS011;12163;49.316;6.092;2024-03-29T01:13:57;7.13;;;2.80;;
23952;SDS011;12163;49.316;6.092;2024-03-29T01:16:23;7.72;;;2.40;;
23952;SDS011;12163;49.316;6.092;2024-03-29T01:18:49;9.40;;;2.75;;
23952;SDS011;12163;49.316;6.092;2024-03-29T01:21:15;9.95;;;3.30;;
23952;SDS011;12163;49.316;6.092;2024-03-29T01:23:41;6.88;;;2.90;;
23952;SDS011;12163;49.316;6.092;2024-03-29T01:26:06;6.60;;;2.60;;
23952;SDS011;12163;49.316;6.092;2024-03-29T01:28:33;5.95;;;2.50;;
23952;SDS011;12163;49.316;6.092;2024-03-29T01:30:59;8.40;;;2.75;;
23952;SDS011;12163;49.316;6.092;2024-03-29T01:33:25;6.18;;;2.70;;
23952;SDS011;12163;49.316;6.092;2024-03-29T01:39:38;8.68;;;2.63;;
23952;SDS011;12163;49.316;6.092;2024-03-29T01:42:03;8.10;;;2.40;;
23952;SDS011;12163;49.316;6.092;2024-03-29T01:44:29;7.60;;;2.70;;
23952;SDS011;12163;49.316;6.092;2024-03-29T01:46:55;6.20;;;2.38;;
23952;SDS011;12163;49.316;6.092;2024-03-29T01:49:21;7.28;;;2.63;;
23952;SDS011;12163;49.316;6.092;2024-03-29T01:51:47;5.03;;;2.50;;
23952;SDS011;12163;49.316;6.092;2024-03-29T01:54:13;7.65;;;2.83;;
23952;SDS011;12163;49.316;6.092;2024-03-29T01:56:39;7.80;;;2.95;;
23952;SDS011;12163;49.316;6.092;2024-03-29T01:59:08;5.10;;;2.33;;
23952;SDS011;12163;49.316;6.092;2024-03-29T02:01:40;4.90;;;2.47;;
23952;SDS011;12163;49.316;6.092;2024-03-29T02:04:06;7.47;;;2.40;;
23952;SDS011;12163;49.316;6.092;2024-03-29T02:06:32;7.25;;;2.47;;
23952;SDS011;12163;49.316;6.092;2024-03-29T02:08:57;5.68;;;2.30;;
23952;SDS011;12163;49.316;6.092;2024-03-29T02:11:23;5.70;;;2.70;;
23952;SDS011;12163;49.316;6.092;2024-03-29T02:13:49;6.32;;;2.38;;
23952;SDS011;12163;49.316;6.092;2024-03-29T02:16:18;9.10;;;2.42;;
23952;SDS011;12163;49.316;6.092;2024-03-29T02:18:43;10.85;;;2.85;;
23952;SDS011;12163;49.316;6.092;2024-03-29T02:21:09;8.68;;;2.97;;
23952;SDS011;12163;49.316;6.092;2024-03-29T02:23:36;12.00;;;2.80;;
23952;SDS011;12163;49.316;6.092;2024-03-29T02:26:03;7.85;;;3.20;;
23952;SDS011;12163;49.316;6.092;2024-03-29T02:28:29;8.88;;;3.30;;
23952;SDS011;12163;49.316;6.092;2024-03-29T02:30:55;7.57;;;2.58;;
23952;SDS011;12163;49.316;6.092;2024-03-29T02:33:21;7.20;;;3.20;;
23952;SDS011;12163;49.316;6.092;2024-03-29T02:35:47;9.15;;;2.85;;
23952;SDS011;12163;49.316;6.092;2024-03-29T02:38:12;8.38;;;3.20;;
23952;SDS011;12163;49.316;6.092;2024-03-29T02:40:38;13.50;;;2.90;;
23952;SDS011;12163;49.316;6.092;2024-03-29T02:43:04;7.20;;;2.50;;
23952;SDS011;12163;49.316;6.092;2024-03-29T02:45:29;8.40;;;3.10;;
23952;SDS011;12163;49.316;6.092;2024-03-29T02:47:55;7.82;;;2.78;;
23952;SDS011;12163;49.316;6.092;2024-03-29T02:50:20;4.85;;;2.17;;
23952;SDS011;12163;49.316;6.092;2024-03-29T02:52:46;7.30;;;2.50;;
23952;SDS011;12163;49.316;6.092;2024-03-29T02:55:12;7.35;;;2.20;;
23952;SDS011;12163;49.316;6.092;2024-03-29T02:57:38;5.65;;;1.92;;
23952;SDS011;12163;49.316;6.092;2024-03-29T03:00:07;4.97;;;1.85;;
23952;SDS011;12163;49.316;6.092;2024-03-29T03:02:37;6.70;;;2.05;;
23952;SDS011;12163;49.316;6.092;2024-03-29T03:05:04;6.35;;;1.70;;
23952;SDS011;12163;49.316;6.092;2024-03-29T03:07:31;5.50;;;1.92;;
23952;SDS011;12163;49.316;6.092;2024-03-29T03:10:15;4.50;;;2.00;;
23952;SDS011;12163;49.316;6.092;2024-03-29T03:12:59;9.18;;;2.33;;
23952;SDS011;12163;49.316;6.092;2024-03-29T03:15:25;7.88;;;2.25;;
23952;SDS011;12163;49.316;6.092;2024-03-29T03:17:51;6.75;;;2.13;;
23952;SDS011;12163;49.316;6.092;2024-03-29T03:20:16;4.65;;;1.48;;
23952;SDS011;12163;49.316;6.092;2024-03-29T03:22:42;5.95;;;1.80;;
23952;SDS011;12163;49.316;6.092;2024-03-29T03:25:08;3.78;;;1.50;;
23952;SDS011;12163;49.316;6.092;2024-03-29T03:27:33;5.25;;;1.58;;
23952;SDS011;12163;49.316;6.092;2024-03-29T03:29:59;1.73;;;1.10;;
23952;SDS011;12163;49.316;6.092;2024-03-29T03:32:25;3.08;;;0.85;;
23952;SDS011;12163;49.316;6.092;2024-03-29T03:34:50;2.22;;;1.20;;
23952;SDS011;12163;49.316;6.092;2024-03-29T03:37:16;5.22;;;1.25;;
23952;SDS011;12163;49.316;6.092;2024-03-29T03:39:41;3.78;;;1.30;;
23952;SDS011;12163;49.316;6.092;2024-03-29T03:42:07;5.65;;;1.23;;
23952;SDS011;12163;49.316;6.092;2024-03-29T03:44:32;3.30;;;0.93;;
23952;SDS011;12163;49.316;6.092;2024-03-29T03:46:58;4.90;;;1.42;;
23952;SDS011;12163;49.316;6.092;2024-03-29T03:49:24;7.45;;;1.45;;
23952;SDS011;12163;49.316;6.092;2024-03-29T03:51:49;4.22;;;1.15;;
23952;SDS011;12163;49.316;6.092;2024-03-29T03:54:15;5.85;;;1.20;;
23952;SDS011;12163;49.316;6.092;2024-03-29T03:59:06;6.85;;;1.40;;
23952;SDS011;12163;49.316;6.092;2024-03-29T04:01:31;5.18;;;1.38;;
23952;SDS011;12163;49.316;6.092;2024-03-29T04:03:57;2.75;;;1.15;;
23952;SDS011;12163;49.316;6.092;2024-03-29T04:06:23;6.15;;;1.10;;
23952;SDS011;12163;49.316;6.092;2024-03-29T04:08:48;4.53;;;1.25;;
23952;SDS011;12163;49.316;6.092;2024-03-29T04:11:14;3.72;;;1.10;;
23952;SDS011;12163;49.316;6.092;2024-03-29T04:13:39;7.65;;;1.60;;
23952;SDS011;12163;49.316;6.092;2024-03-29T04:16:07;7.45;;;1.40;;
23952;SDS011;12163;49.316;6.092;2024-03-29T04:18:33;5.78;;;1.20;;
23952;SDS011;12163;49.316;6.092;2024-03-29T04:20:59;5.25;;;1.15;;
23952;SDS011;12163;49.316;6.092;2024-03-29T04:23:26;5.82;;;1.45;;
23952;SDS011;12163;49.316;6.092;2024-03-29T04:25:55;7.68;;;2.05;;
23952;SDS011;12163;49.316;6.092;2024-03-29T04:28:22;4.75;;;1.50;;
23952;SDS011;12163;49.316;6.092;2024-03-29T04:30:58;8.43;;;1.60;;
23952;SDS011;12163;49.316;6.092;2024-03-29T04:33:25;6.18;;;1.58;;
23952;SDS011;12163;49.316;6.092;2024-03-29T04:38:20;6.22;;;1.90;;
23952;SDS011;12163;49.316;6.092;2024-03-29T04:40:46;7.03;;;1.90;;
23952;SDS011;12163;49.316;6.092;2024-03-29T04:43:13;7.43;;;2.00;;
23952;SDS011;12163;49.316;6.092;2024-03-29T04:45:38;3.25;;;1.52;;
23952;SDS011;12163;49.316;6.092;2024-03-29T04:48:04;6.20;;;2.00;;
23952;SDS011;12163;49.316;6.092;2024-03-29T04:50:30;6.43;;;1.80;;
23952;SDS011;12163;49.316;6.092;2024-03-29T04:52:56;4.45;;;1.92;;
23952;SDS011;12163;49.316;6.092;2024-03-29T04:55:21;6.55;;;2.10;;
23952;SDS011;12163;49.316;6.092;2024-03-29T04:57:47;10.02;;;2.25;;
23952;SDS011;12163;49.316;6.092;2024-03-29T05:00:12;11.02;;;2.90;;
23952;SDS011;12163;49.316;6.092;2024-03-29T05:02:38;7.55;;;2.50;;
23952;SDS011;12163;49.316;6.092;2024-03-29T05:05:04;6.90;;;2.70;;
23952;SDS011;12163;49.316;6.092;2024-03-29T05:07:30;10.85;;;2.67;;
23952;SDS011;12163;49.316;6.092;2024-03-29T05:09:55;10.95;;;3.30;;
23952;SDS011;12163;49.316;6.092;2024-03-29T05:12:21;10.35;;;2.78;;
23952;SDS011;12163;49.316;6.092;2024-03-29T05:14:47;7.55;;;2.88;;
23952;SDS011;12163;49.316;6.092;2024-03-29T05:17:14;12.27;;;3.38;;
23952;SDS011;12163;49.316;6.092;2024-03-29T05:19:40;8.43;;;3.00;;
23952;SDS011;12163;49.316;6.092;2024-03-29T05:22:06;8.82;;;2.75;;
23952;SDS011;12163;49.316;6.092;2024-03-29T05:24:32;7.57;;;3.20;;
23952;SDS011;12163;49.316;6.092;2024-03-29T05:26:57;10.15;;;2.67;;
23952;SDS011;12163;49.316;6.092;2024-03-29T05:29:23;11.98;;;2.97;;
23952;SDS011;12163;49.316;6.092;2024-03-29T05:31:48;8.82;;;2.60;;
23952;SDS011;12163;49.316;6.092;2024-03-29T05:34:14;5.43;;;1.85;;
23952;SDS011;12163;49.316;6.092;2024-03-29T05:36:40;7.93;;;2.35;;
23952;SDS011;12163;49.316;6.092;2024-03-29T05:39:06;4.60;;;1.75;;
23952;SDS011;12163;49.316;6.092;2024-03-29T05:41:31;8.35;;;2.05;;
23952;SDS011;12163;49.316;6.092;2024-03-29T05:43:57;8.02;;;1.70;;
23952;SDS011;12163;49.316;6.092;2024-03-29T05:46:23;3.50;;;1.45;;
23952;SDS011;12163;49.316;6.092;2024-03-29T05:48:49;4.03;;;1.42;;
23952;SDS011;12163;49.316;6.092;2024-03-29T05:51:14;4.13;;;1.40;;
23952;SDS011;12163;49.316;6.092;2024-03-29T05:53:40;7.15;;;1.58;;
23952;SDS011;12163;49.316;6.092;2024-03-29T05:56:06;4.95;;;1.50;;
23952;SDS011;12163;49.316;6.092;2024-03-29T05:58:33;6.57;;;1.77;;
23952;SDS011;12163;49.316;6.092;2024-03-29T06:00:59;5.63;;;2.13;;
23952;SDS011;12163;49.316;6.092;2024-03-29T06:03:24;6.40;;;1.55;;
23952;SDS011;12163;49.316;6.092;2024-03-29T06:05:50;10.07;;;1.73;;
23952;SDS011;12163;49.316;6.092;2024-03-29T06:08:16;8.63;;;1.70;;
23952;SDS011;12163;49.316;6.092;2024-03-29T06:10:41;6.30;;;1.58;;
23952;SDS011;12163;49.316;6.092;2024-03-29T06:13:07;6.60;;;1.60;;
23952;SDS011;12163;49.316;6.092;2024-03-29T06:15:35;5.70;;;1.30;;
23952;SDS011;12163;49.316;6.092;2024-03-29T06:18:19;7.40;;;1.63;;
23952;SDS011;12163;49.316;6.092;2024-03-29T06:20:46;6.97;;;1.75;;
23952;SDS011;12163;49.316;6.092;2024-03-29T06:23:13;5.22;;;1.90;;
23952;SDS011;12163;49.316;6.092;2024-03-29T06:25:39;5.97;;;1.48;;
23952;SDS011;12163;49.316;6.092;2024-03-29T06:28:05;8.63;;;1.45;;
23952;SDS011;12163;49.316;6.092;2024-03-29T06:30:31;3.85;;;1.58;;
23952;SDS011;12163;49.316;6.092;2024-03-29T06:32:56;9.35;;;1.80;;
23952;SDS011;12163;49.316;6.092;2024-03-29T06:35:22;5.78;;;1.35;;
23952;SDS011;12163;49.316;6.092;2024-03-29T06:37:48;5.07;;;1.55;;
23952;SDS011;12163;49.316;6.092;2024-03-29T06:40:14;11.55;;;2.03;;
23952;SDS011;12163;49.316;6.092;2024-03-29T06:42:39;5.45;;;1.98;;
23952;SDS011;12163;49.316;6.092;2024-03-29T06:45:05;3.97;;;1.70;;
23952;SDS011;12163;49.316;6.092;2024-03-29T06:47:32;11.65;;;1.90;;
23952;SDS011;12163;49.316;6.092;2024-03-29T06:49:57;8.38;;;2.17;;
23952;SDS011;12163;49.316;6.092;2024-03-29T06:52:23;8.48;;;2.10;;
23952;SDS011;12163;49.316;6.092;2024-03-29T06:54:49;7.72;;;2.40;;
23952;SDS011;12163;49.316;6.092;2024-03-29T06:57:14;6.55;;;2.40;;
23952;SDS011;12163;49.316;6.092;2024-03-29T06:59:42;11.85;;;3.22;;
23952;SDS011;12163;49.316;6.092;2024-03-29T07:02:08;7.78;;;3.13;;
23952;SDS011;12163;49.316;6.092;2024-03-29T07:04:35;9.75;;;2.95;;
23952;SDS011;12163;49.316;6.092;2024-03-29T07:07:01;9.80;;;2.95;;
23952;SDS011;12163;49.316;6.092;2024-03-29T07:09:26;9.15;;;2.90;;
23952;SDS011;12163;49.316;6.092;2024-03-29T07:11:52;11.93;;;2.95;;
23952;SDS011;12163;49.316;6.092;2024-03-29T07:14:18;10.43;;;3.00;;
23952;SDS011;12163;49.316;6.092;2024-03-29T07:16:44;9.73;;;2.85;;
23952;SDS011;12163;49.316;6.092;2024-03-29T07:19:11;10.48;;;3.08;;
23952;SDS011;12163;49.316;6.092;2024-03-29T07:21:44;11.13;;;3.00;;
23952;SDS011;12163;49.316;6.092;2024-03-29T07:24:12;12.55;;;3.28;;
23952;SDS011;12163;49.316;6.092;2024-03-29T07:26:38;9.63;;;3.28;;
23952;SDS011;12163;49.316;6.092;2024-03-29T07:29:05;7.50;;;3.22;;
23952;SDS011;12163;49.316;6.092;2024-03-29T07:31:32;9.85;;;3.60;;
23952;SDS011;12163;49.316;6.092;2024-03-29T07:33:59;6.80;;;3.20;;
23952;SDS011;12163;49.316;6.092;2024-03-29T07:36:24;9.00;;;3.70;;
23952;SDS011;12163;49.316;6.092;2024-03-29T07:38:52;7.30;;;3.65;;
23952;SDS011;12163;49.316;6.092;2024-03-29T07:41:17;13.85;;;4.72;;
23952;SDS011;12163;49.316;6.092;2024-03-29T07:43:53;15.35;;;5.00;;
23952;SDS011;12163;49.316;6.092;2024-03-29T07:46:28;13.50;;;5.30;;
23952;SDS011;12163;49.316;6.092;2024-03-29T07:48:55;13.57;;;5.30;;
23952;SDS011;12163;49.316;6.092;2024-03-29T07:51:21;12.60;;;6.15;;
23952;SDS011;12163;49.316;6.092;2024-03-29T07:53:47;13.98;;;6.57;;
23952;SDS011;12163;49.316;6.092;2024-03-29T07:56:13;12.93;;;5.40;;
23952;SDS011;12163;49.316;6.092;2024-03-29T07:58:39;9.80;;;5.10;;
23952;SDS011;12163;49.316;6.092;2024-03-29T08:01:04;11.15;;;5.63;;
23952;SDS011;12163;49.316;6.092;2024-03-29T08:03:31;11.73;;;5.28;;
23952;SDS011;12163;49.316;6.092;2024-03-29T08:06:02;11.10;;;4.05;;
23952;SDS011;12163;49.316;6.092;2024-03-29T08:08:32;10.45;;;3.53;;
23952;SDS011;12163;49.316;6.092;2024-03-29T08:10:58;11.40;;;4.05;;
23952;SDS011;12163;49.316;6.092;2024-03-29T08:13:25;9.80;;;3.90;;
23952;SDS011;12163;49.316;6.092;2024-03-29T08:16:00;10.07;;;3.58;;
23952;SDS011;12163;49.316;6.092;2024-03-29T08:18:27;11.02;;;3.53;;
23952;SDS011;12163;49.316;6.092;2024-03-29T08:20:53;9.43;;;3.45;;
23952;SDS011;12163;49.316;6.092;2024-03-29T08:23:23;12.13;;;3.55;;
23952;SDS011;12163;49.316;6.092;2024-03-29T08:25:49;6.50;;;3.13;;
23952;SDS011;12163;49.316;6.092;2024-03-29T08:28:17;8.85;;;3.83;;
23952;SDS011;12163;49.316;6.092;2024-03-29T08:30:46;5.57;;;3.50;;
23952;SDS011;12163;49.316;6.092;2024-03-29T08:33:11;8.95;;;3.90;;
23952;SDS011;12163;49.316;6.092;2024-03-29T08:35:37;13.75;;;4.10;;
23952;SDS011;12163;49.316;6.092;2024-03-29T08:38:04;8.55;;;3.50;;
23952;SDS011;12163;49.316;6.092;2024-03-29T08:40:30;8.52;;;3.30;;
23952;SDS011;12163;49.316;6.092;2024-03-29T08:42:57;11.65;;;4.03;;
23952;SDS011;12163;49.316;6.092;2024-03-29T08:45:23;9.35;;;3.78;;
23952;SDS011;12163;49.316;6.092;2024-03-29T08:47:49;8.10;;;4.07;;
23952;SDS011;12163;49.316;6.092;2024-03-29T08:52:40;12.77;;;4.25;;
23952;SDS011;12163;49.316;6.092;2024-03-29T08:55:06;7.80;;;3.70;;
23952;SDS011;12163;49.316;6.092;2024-03-29T08:57:32;11.68;;;4.88;;
23952;SDS011;12163;49.316;6.092;2024-03-29T08:59:58;8.93;;;4.35;;
23952;SDS011;12163;49.316;6.092;2024-03-29T09:02:24;10.18;;;4.45;;
23952;SDS011;12163;49.316;6.092;2024-03-29T09:04:49;9.65;;;4.20;;
23952;SDS011;12163;49.316;6.092;2024-03-29T09:07:15;8.40;;;3.55;;
23952;SDS011;12163;49.316;6.092;2024-03-29T09:09:41;11.80;;;3.92;;
23952;SDS011;12163;49.316;6.092;2024-03-29T09:12:07;8.88;;;4.13;;
23952;SDS011;12163;49.316;6.092;2024-03-29T09:14:33;10.48;;;3.50;;
23952;SDS011;12163;49.316;6.092;2024-03-29T09:16:59;7.10;;;3.10;;
23952;SDS011;12163;49.316;6.092;2024-03-29T09:19:25;5.07;;;3.00;;
23952;SDS011;12163;49.316;6.092;2024-03-29T09:21:50;5.68;;;3.42;;
23952;SDS011;12163;49.316;6.092;2024-03-29T09:24:16;9.98;;;3.25;;
23952;SDS011;12163;49.316;6.092;2024-03-29T09:26:45;7.95;;;2.95;;
23952;SDS011;12163;49.316;6.092;2024-03-29T09:29:11;6.03;;;2.75;;
23952;SDS011;12163;49.316;6.092;2024-03-29T09:31:38;8.52;;;2.58;;
23952;SDS011;12163;49.316;6.092;2024-03-29T09:34:04;7.47;;;2.72;;
23952;SDS011;12163;49.316;6.092;2024-03-29T09:38:55;12.15;;;3.30;;
23952;SDS011;12163;49.316;6.092;2024-03-29T09:41:20;9.98;;;3.08;;
23952;SDS011;12163;49.316;6.092;2024-03-29T09:43:48;9.15;;;3.08;;
23952;SDS011;12163;49.316;6.092;2024-03-29T09:46:16;7.03;;;2.65;;
23952;SDS011;12163;49.316;6.092;2024-03-29T09:48:43;11.50;;;2.55;;
23952;SDS011;12163;49.316;6.092;2024-03-29T09:51:13;5.28;;;1.65;;
23952;SDS011;12163;49.316;6.092;2024-03-29T09:53:39;13.43;;;2.08;;
23952;SDS011;12163;49.316;6.092;2024-03-29T09:56:07;5.22;;;1.50;;
23952;SDS011;12163;49.316;6.092;2024-03-29T09:58:33;5.55;;;1.80;;
23952;SDS011;12163;49.316;6.092;2024-03-29T10:01:00;5.28;;;1.70;;
23952;SDS011;12163;49.316;6.092;2024-03-29T10:03:29;9.07;;;1.60;;
23952;SDS011;12163;49.316;6.092;2024-03-29T10:06:04;6.00;;;1.60;;
23952;SDS011;12163;49.316;6.092;2024-03-29T10:08:33;4.38;;;1.52;;
23952;SDS011;12163;49.316;6.092;2024-03-29T10:10:59;9.75;;;1.80;;
23952;SDS011;12163;49.316;6.092;2024-03-29T10:13:25;4.85;;;1.48;;
23952;SDS011;12163;49.316;6.092;2024-03-29T10:15:54;5.18;;;1.45;;
23952;SDS011;12163;49.316;6.092;2024-03-29T10:18:22;7.75;;;1.95;;
23952;SDS011;12163;49.316;6.092;2024-03-29T10:21:01;7.13;;;2.05;;
23952;SDS011;12163;49.316;6.092;2024-03-29T10:25:57;6.70;;;1.88;;
23952;SDS011;12163;49.316;6.092;2024-03-29T10:28:23;5.88;;;1.80;;
23952;SDS011;12163;49.316;6.092;2024-03-29T10:30:54;6.22;;;1.60;;
23952;SDS011;12163;49.316;6.092;2024-03-29T10:33:20;8.25;;;2.45;;
23952;SDS011;12163;49.316;6.092;2024-03-29T10:35:46;5.78;;;2.03;;
23952;SDS011;12163;49.316;6.092;2024-03-29T10:38:12;5.82;;;2.05;;
23952;SDS011;12163;49.316;6.092;2024-03-29T10:40:38;6.60;;;2.22;;
23952;SDS011;12163;49.316;6.092;2024-03-29T10:43:11;4.55;;;1.80;;
23952;SDS011;12163;49.316;6.092;2024-03-29T10:45:44;5.45;;;2.10;;
23952;SDS011;12163;49.316;6.092;2024-03-29T10:48:11;4.80;;;1.92;;
23952;SDS011;12163;49.316;6.092;2024-03-29T10:50:40;6.82;;;2.13;;
23952;SDS011;12163;49.316;6.092;2024-03-29T10:53:08;3.65;;;1.50;;
23952;SDS011;12163;49.316;6.092;2024-03-29T10:55:35;8.75;;;2.17;;
23952;SDS011;12163;49.316;6.092;2024-03-29T10:58:02;4.15;;;1.50;;
23952;SDS011;12163;49.316;6.092;2024-03-29T11:00:33;4.00;;;1.60;;
23952;SDS011;12163;49.316;6.092;2024-03-29T11:05:48;2.90;;;1.27;;
23952;SDS011;12163;49.316;6.092;2024-03-29T11:08:24;3.70;;;1.33;;
23952;SDS011;12163;49.316;6.092;2024-03-29T11:10:54;3.17;;;1.35;;
23952;SDS011;12163;49.316;6.092;2024-03-29T11:16:00;3.42;;;1.17;;
23952;SDS011;12163;49.316;6.092;2024-03-29T11:18:26;4.10;;;1.35;;
23952;SDS011;12163;49.316;6.092;2024-03-29T11:20:54;4.50;;;1.67;;
23952;SDS011;12163;49.316;6.092;2024-03-29T11:23:22;3.30;;;1.38;;
23952;SDS011;12163;49.316;6.092;2024-03-29T11:25:49;6.95;;;1.40;;
23952;SDS011;12163;49.316;6.092;2024-03-29T11:28:32;5.65;;;1.50;;
23952;SDS011;12163;49.316;6.092;2024-03-29T11:31:05;3.38;;;1.30;;
23952;SDS011;12163;49.316;6.092;2024-03-29T11:36:13;4.15;;;1.27;;
23952;SDS011;12163;49.316;6.092;2024-03-29T11:38:39;4.55;;;1.58;;
23952;SDS011;12163;49.316;6.092;2024-03-29T11:41:13;5.30;;;1.33;;
23952;SDS011;12163;49.316;6.092;2024-03-29T11:43:40;4.72;;;1.05;;
23952;SDS011;12163;49.316;6.092;2024-03-29T11:46:08;1.98;;;1.10;;
23952;SDS011;12163;49.316;6.092;2024-03-29T11:48:35;4.85;;;0.98;;
23952;SDS011;12163;49.316;6.092;2024-03-29T11:51:05;3.13;;;1.30;;
23952;SDS011;12163;49.316;6.092;2024-03-29T11:53:34;2.72;;;1.13;;
23952;SDS011;12163;49.316;6.092;2024-03-29T11:56:00;2.45;;;1.00;;
23952;SDS011;12163;49.316;6.092;2024-03-29T11:58:28;4.35;;;1.23;;
23952;SDS011;12163;49.316;6.092;2024-03-29T12:00:54;4.80;;;1.40;;
23952;SDS011;12163;49.316;6.092;2024-03-29T12:03:23;3.38;;;1.30;;
23952;SDS011;12163;49.316;6.092;2024-03-29T12:05:49;3.30;;;1.50;;
23952;SDS011;12163;49.316;6.092;2024-03-29T12:08:17;4.18;;;1.63;;
23952;SDS011;12163;49.316;6.092;2024-03-29T12:10:43;3.58;;;1.60;;
23952;SDS011;12163;49.316;6.092;2024-03-29T12:13:09;3.47;;;1.20;;
23952;SDS011;12163;49.316;6.092;2024-03-29T12:15:34;4.45;;;1.20;;
23952;SDS011;12163;49.316;6.092;2024-03-29T12:20:31;4.60;;;1.17;;
23952;SDS011;12163;49.316;6.092;2024-03-29T12:23:04;5.45;;;1.63;;
23952;SDS011;12163;49.316;6.092;2024-03-29T12:25:37;3.00;;;0.95;;
23952;SDS011;12163;49.316;6.092;2024-03-29T12:28:03;3.40;;;1.10;;
23952;SDS011;12163;49.316;6.092;2024-03-29T12:30:29;4.82;;;1.65;;
23952;SDS011;12163;49.316;6.092;2024-03-29T12:35:28;4.88;;;1.08;;
23952;SDS011;12163;49.316;6.092;2024-03-29T12:37:57;2.35;;;1.13;;
23952;SDS011;12163;49.316;6.092;2024-03-29T12:40:28;4.00;;;1.20;;
23952;SDS011;12163;49.316;6.092;2024-03-29T12:42:57;5.28;;;1.50;;
23952;SDS011;12163;49.316;6.092;2024-03-29T12:45:24;5.60;;;1.70;;
23952;SDS011;12163;49.316;6.092;2024-03-29T12:47:51;4.13;;;1.42;;
23952;SDS011;12163;49.316;6.092;2024-03-29T12:52:56;4.05;;;1.15;;
23952;SDS011;12163;49.316;6.092;2024-03-29T12:55:26;2.85;;;1.02;;
23952;SDS011;12163;49.316;6.092;2024-03-29T12:57:55;3.47;;;1.15;;
23952;SDS011;12163;49.316;6.092;2024-03-29T13:00:21;4.80;;;1.50;;
23952;SDS011;12163;49.316;6.092;2024-03-29T13:02:48;5.97;;;1.92;;
23952;SDS011;12163;49.316;6.092;2024-03-29T13:05:14;3.28;;;1.30;;
23952;SDS011;12163;49.316;6.092;2024-03-29T13:07:40;7.70;;;1.95;;
23952;SDS011;12163;49.316;6.092;2024-03-29T13:10:06;5.68;;;1.48;;
23952;SDS011;12163;49.316;6.092;2024-03-29T13:12:43;3.33;;;1.08;;
23952;SDS011;12163;49.316;6.092;2024-03-29T13:15:25;4.10;;;1.35;;
23952;SDS011;12163;49.316;6.092;2024-03-29T13:17:54;4.05;;;1.50;;
23952;SDS011;12163;49.316;6.092;2024-03-29T13:20:20;3.97;;;1.48;;
23952;SDS011;12163;49.316;6.092;2024-03-29T13:22:47;2.92;;;1.60;;
23952;SDS011;12163;49.316;6.092;2024-03-29T13:25:14;3.08;;;1.73;;
23952;SDS011;12163;49.316;6.092;2024-03-29T13:27:44;3.90;;;1.80;;
23952;SDS011;12163;49.316;6.092;2024-03-29T13:30:13;7.95;;;2.38;;
23952;SDS011;12163;49.316;6.092;2024-03-29T13:32:42;5.93;;;2.00;;
23952;SDS011;12163;49.316;6.092;2024-03-29T13:35:10;6.88;;;2.60;;
23952;SDS011;12163;49.316;6.092;2024-03-29T13:37:39;3.75;;;1.92;;
23952;SDS011;12163;49.316;6.092;2024-03-29T13:40:11;8.35;;;2.17;;
23952;SDS011;12163;49.316;6.092;2024-03-29T13:42:38;7.03;;;2.30;;
23952;SDS011;12163;49.316;6.092;2024-03-29T13:45:04;7.88;;;2.20;;
23952;SDS011;12163;49.316;6.092;2024-03-29T13:47:34;4.25;;;1.85;;
23952;SDS011;12163;49.316;6.092;2024-03-29T13:50:01;5.00;;;2.00;;
23952;SDS011;12163;49.316;6.092;2024-03-29T13:52:27;4.35;;;2.10;;
23952;SDS011;12163;49.316;6.092;2024-03-29T13:54:53;6.85;;;1.90;;
23952;SDS011;12163;49.316;6.092;2024-03-29T13:57:19;4.53;;;1.73;;
23952;SDS011;12163;49.316;6.092;2024-03-29T13:59:46;6.72;;;2.22;;
23952;SDS011;12163;49.316;6.092;2024-03-29T14:02:12;3.78;;;2.50;;
23952;SDS011;12163;49.316;6.092;2024-03-29T14:04:39;7.25;;;2.72;;
23952;SDS011;12163;49.316;6.092;2024-03-29T14:07:06;4.95;;;2.28;;
23952;SDS011;12163;49.316;6.092;2024-03-29T14:09:36;4.32;;;2.40;;
23952;SDS011;12163;49.316;6.092;2024-03-29T14:12:09;7.13;;;2.00;;
23952;SDS011;12163;49.316;6.092;2024-03-29T14:14:35;4.60;;;2.20;;
23952;SDS011;12163;49.316;6.092;2024-03-29T14:17:02;5.93;;;1.77;;
23952;SDS011;12163;49.316;6.092;2024-03-29T14:19:35;2.95;;;1.58;;
23952;SDS011;12163;49.316;6.092;2024-03-29T14:22:02;3.75;;;1.50;;
23952;SDS011;12163;49.316;6.092;2024-03-29T14:24:28;4.05;;;1.40;;
23952;SDS011;12163;49.316;6.092;2024-03-29T14:26:58;5.55;;;1.70;;
23952;SDS011;12163;49.316;6.092;2024-03-29T14:29:24;6.47;;;1.88;;
23952;SDS011;12163;49.316;6.092;2024-03-29T14:31:50;4.03;;;1.65;;
23952;SDS011;12163;49.316;6.092;2024-03-29T14:34:16;6.15;;;1.52;;
23952;SDS011;12163;49.316;6.092;2024-03-29T14:36:43;3.50;;;1.60;;
23952;SDS011;12163;49.316;6.092;2024-03-29T14:39:09;3.85;;;1.70;;
23952;SDS011;12163;49.316;6.092;2024-03-29T14:41:38;5.03;;;1.70;;
23952;SDS011;12163;49.316;6.092;2024-03-29T14:44:08;4.85;;;1.50;;
23952;SDS011;12163;49.316;6.092;2024-03-29T14:46:34;8.23;;;2.30;;
23952;SDS011;12163;49.316;6.092;2024-03-29T14:49:00;5.82;;;2.08;;
23952;SDS011;12163;49.316;6.092;2024-03-29T14:51:33;7.55;;;1.70;;
23952;SDS011;12163;49.316;6.092;2024-03-29T14:53:59;2.13;;;1.42;;
23952;SDS011;12163;49.316;6.092;2024-03-29T14:56:28;6.65;;;2.10;;
23952;SDS011;12163;49.316;6.092;2024-03-29T14:58:56;4.07;;;2.15;;
23952;SDS011;12163;49.316;6.092;2024-03-29T15:01:23;4.60;;;2.00;;
23952;SDS011;12163;49.316;6.092;2024-03-29T15:03:48;6.53;;;2.47;;
23952;SDS011;12163;49.316;6.092;2024-03-29T15:06:15;6.07;;;2.78;;
23952;SDS011;12163;49.316;6.092;2024-03-29T15:08:41;5.28;;;2.38;;
23952;SDS011;12163;49.316;6.092;2024-03-29T15:11:07;5.05;;;1.70;;
23952;SDS011;12163;49.316;6.092;2024-03-29T15:13:32;3.45;;;1.85;;
23952;SDS011;12163;49.316;6.092;2024-03-29T15:15:59;6.20;;;2.22;;